createdAt,value
2022-11-05T00:00:17.955Z,99.99
2022-11-05T00:01:17.954Z,99.99
2022-11-05T00:02:17.930Z,99.99
2022-11-05T00:03:18.055Z,99.99
2022-11-05T00:04:17.925Z,99.99
2022-11-05T00:05:17.977Z,99.99
2022-11-05T00:06:17.977Z,99.99
2022-11-05T00:07:17.933Z,99.99
2022-11-05T00:08:17.935Z,99.99
2022-11-05T00:09:17.935Z,99.99
2022-11-05T00:10:17.943Z,99.99
2022-11-05T00:11:18.524Z,99.99
2022-11-05T00:12:17.940Z,99.99
2022-11-05T00:13:17.935Z,99.99
2022-11-05T00:14:17.924Z,99.99
2022-11-05T00:15:17.925Z,99.99
2022-11-05T00:16:17.967Z,99.99
2022-11-05T00:17:17.928Z,99.99
2022-11-05T00:18:17.926Z,99.99
2022-11-05T00:19:18.004Z,99.99
2022-11-05T00:20:17.952Z,99.99
2022-11-05T00:21:17.911Z,99.99
2022-11-05T00:22:17.964Z,99.99
2022-11-05T00:25:00.426Z,99.99
2022-11-05T00:26:00.423Z,99.99
2022-11-05T00:27:00.422Z,99.99
2022-11-05T00:28:00.425Z,99.99
2022-11-05T00:29:00.412Z,99.99
2022-11-05T00:30:00.427Z,99.99
2022-11-05T00:31:00.420Z,99.99
2022-11-05T00:32:00.417Z,99.99
2022-11-05T00:33:00.433Z,99.99
2022-11-05T00:34:00.413Z,99.99
2022-11-05T00:35:00.497Z,99.99
2022-11-05T00:36:00.411Z,99.99
2022-11-05T00:37:00.407Z,99.99
2022-11-05T00:38:00.416Z,99.99
2022-11-05T00:39:00.417Z,99.99
2022-11-05T00:40:00.402Z,99.99
2022-11-05T00:41:00.402Z,99.99
2022-11-05T00:42:00.413Z,99.99
2022-11-05T00:43:00.420Z,99.99
2022-11-05T00:44:00.400Z,99.99
2022-11-05T00:45:00.412Z,99.99
2022-11-05T00:46:00.396Z,99.99
2022-11-05T00:47:00.399Z,99.99
2022-11-05T00:48:00.407Z,99.99
2022-11-05T00:49:00.404Z,99.99
2022-11-05T00:50:00.419Z,99.99
2022-11-05T00:51:00.420Z,99.99
2022-11-05T00:52:00.408Z,99.99
2022-11-05T00:53:00.409Z,99.99
2022-11-05T00:54:00.400Z,99.99
2022-11-05T00:55:00.417Z,99.99
2022-11-05T00:56:00.384Z,99.99
2022-11-05T00:57:04.492Z,99.99
2022-11-05T00:58:00.392Z,99.99
2022-11-05T00:59:00.380Z,99.99
2022-11-05T01:00:00.380Z,99.99
2022-11-05T01:01:00.393Z,99.99
2022-11-05T01:02:00.518Z,99.99
2022-11-05T01:03:00.377Z,99.99
2022-11-05T01:04:00.383Z,99.99
2022-11-05T01:05:00.393Z,99.99
2022-11-05T01:06:00.388Z,99.99
2022-11-05T01:07:00.384Z,99.99
2022-11-05T01:08:00.377Z,99.99
2022-11-05T01:09:00.366Z,99.99
2022-11-05T01:10:00.399Z,99.99
2022-11-05T01:11:00.380Z,99.99
2022-11-05T01:12:00.368Z,99.99
2022-11-05T01:13:00.371Z,99.99
2022-11-05T01:14:00.373Z,99.99
2022-11-05T01:15:00.381Z,99.99
2022-11-05T01:16:00.385Z,99.99
2022-11-05T01:17:00.368Z,99.99
2022-11-05T01:18:00.364Z,99.99
2022-11-05T01:19:00.362Z,99.99
2022-11-05T01:20:00.368Z,99.99
2022-11-05T01:21:00.358Z,99.99
2022-11-05T01:22:00.382Z,99.99
2022-11-05T01:23:00.369Z,99.99
2022-11-05T01:24:00.361Z,99.99
2022-11-05T01:25:00.412Z,99.99
2022-11-05T01:26:00.349Z,99.99
2022-11-05T01:27:00.357Z,99.99
2022-11-05T01:28:00.361Z,99.99
2022-11-05T01:29:00.615Z,99.99
2022-11-05T01:30:00.340Z,99.99
2022-11-05T01:31:00.352Z,99.99
2022-11-05T01:32:00.343Z,99.99
2022-11-05T01:33:00.364Z,99.99
2022-11-05T01:34:00.349Z,99.99
2022-11-05T01:35:00.353Z,99.99
2022-11-05T01:36:00.349Z,99.99
2022-11-05T01:37:00.369Z,99.99
2022-11-05T01:38:00.344Z,99.99
2022-11-05T01:39:00.349Z,99.99
2022-11-05T01:40:00.326Z,99.99
2022-11-05T01:41:00.337Z,99.99
2022-11-05T01:42:00.329Z,99.99
2022-11-05T01:43:00.355Z,99.99
2022-11-05T01:44:00.361Z,99.99
2022-11-05T01:45:00.354Z,99.99
2022-11-05T01:46:00.317Z,99.99
2022-11-05T01:47:00.334Z,99.99
2022-11-05T01:48:00.362Z,99.99
2022-11-05T01:49:03.328Z,99.99
2022-11-05T01:50:00.352Z,99.99
2022-11-05T01:51:00.324Z,99.99
2022-11-05T01:52:00.338Z,99.99
2022-11-05T01:53:00.343Z,99.99
2022-11-05T01:54:00.320Z,99.99
2022-11-05T01:55:00.361Z,99.99
2022-11-05T01:56:00.380Z,99.99
2022-11-05T01:57:00.306Z,99.99
2022-11-05T01:58:00.322Z,99.99
2022-11-05T01:59:00.314Z,99.99
2022-11-05T02:00:00.321Z,99.99
2022-11-05T02:01:00.326Z,99.99
2022-11-05T02:02:01.855Z,99.99
2022-11-05T02:03:00.388Z,99.99
2022-11-05T02:04:00.329Z,99.99
2022-11-05T02:05:00.298Z,99.99
2022-11-05T02:06:00.305Z,99.99
2022-11-05T02:07:00.317Z,99.99
2022-11-05T02:08:00.321Z,99.99
2022-11-05T02:09:00.301Z,99.99
2022-11-05T02:10:00.290Z,99.99
2022-11-05T02:11:00.289Z,99.99
2022-11-05T02:12:00.313Z,99.99
2022-11-05T02:13:00.313Z,99.99
2022-11-05T02:14:00.293Z,99.99
2022-11-05T02:15:00.284Z,99.99
2022-11-05T02:16:00.296Z,99.99
2022-11-05T02:17:00.294Z,99.99
2022-11-05T02:18:00.304Z,99.99
2022-11-05T02:19:00.293Z,99.99
2022-11-05T02:20:00.283Z,99.99
2022-11-05T02:21:00.286Z,99.99
2022-11-05T02:22:00.302Z,99.99
2022-11-05T02:23:00.284Z,99.99
2022-11-05T02:24:00.283Z,99.99
2022-11-05T02:25:00.273Z,99.99
2022-11-05T02:26:00.276Z,99.99
2022-11-05T02:27:00.272Z,99.99
2022-11-05T02:28:00.298Z,99.99
2022-11-05T02:29:00.274Z,99.99
2022-11-05T02:30:00.268Z,99.99
2022-11-05T02:31:00.272Z,99.99
2022-11-05T02:32:00.259Z,99.99
2022-11-05T02:33:00.282Z,99.99
2022-11-05T02:34:00.284Z,99.99
2022-11-05T02:35:00.256Z,99.99
2022-11-05T02:36:00.253Z,99.99
2022-11-05T02:37:00.251Z,99.99
2022-11-05T02:38:00.260Z,99.99
2022-11-05T02:39:00.267Z,99.99
2022-11-05T02:40:00.271Z,99.99
2022-11-05T02:41:00.246Z,99.99
2022-11-05T02:42:04.766Z,99.99
2022-11-05T02:43:00.333Z,99.99
2022-11-05T02:44:00.247Z,99.99
2022-11-05T02:45:00.254Z,99.99
2022-11-05T02:46:00.246Z,99.99
2022-11-05T02:47:00.265Z,99.99
2022-11-05T02:48:00.247Z,99.99
2022-11-05T02:49:00.264Z,99.99
2022-11-05T02:50:00.269Z,99.99
2022-11-05T02:51:00.234Z,99.99
2022-11-05T02:52:00.246Z,99.99
2022-11-05T02:53:00.236Z,99.99
2022-11-05T02:54:00.239Z,99.99
2022-11-05T02:55:00.260Z,99.99
2022-11-05T02:56:00.243Z,99.99
2022-11-05T02:57:00.233Z,99.99
2022-11-05T02:58:00.233Z,99.99
2022-11-05T02:59:00.216Z,99.99
2022-11-05T03:00:00.255Z,99.99
2022-11-05T03:01:00.230Z,99.99
2022-11-05T03:02:00.404Z,99.99
2022-11-05T03:03:00.318Z,99.99
2022-11-05T03:04:00.211Z,99.99
2022-11-05T03:05:00.216Z,99.99
2022-11-05T03:06:00.217Z,99.99
2022-11-05T03:07:00.230Z,99.99
2022-11-05T03:08:00.207Z,99.99
2022-11-05T03:09:00.215Z,99.99
2022-11-05T03:10:00.206Z,99.99
2022-11-05T03:11:00.212Z,99.99
2022-11-05T03:12:00.210Z,99.99
2022-11-05T03:13:00.207Z,99.99
2022-11-05T03:14:00.233Z,99.99
2022-11-05T03:15:00.223Z,99.99
2022-11-05T03:16:00.197Z,99.99
2022-11-05T03:17:00.205Z,99.99
2022-11-05T03:18:00.205Z,99.99
2022-11-05T03:19:00.191Z,99.99
2022-11-05T03:20:00.207Z,99.99
2022-11-05T03:21:00.203Z,99.99
2022-11-05T03:22:00.202Z,99.99
2022-11-05T03:23:00.184Z,99.99
2022-11-05T03:24:00.181Z,99.99
2022-11-05T03:25:00.200Z,99.99
2022-11-05T03:26:00.176Z,99.99
2022-11-05T03:27:00.189Z,99.99
2022-11-05T03:28:00.185Z,99.99
2022-11-05T03:29:00.201Z,99.99
2022-11-05T03:30:00.192Z,99.99
2022-11-05T03:31:00.196Z,99.99
2022-11-05T03:32:00.169Z,99.99
2022-11-05T03:33:00.179Z,99.99
2022-11-05T03:34:00.181Z,99.99
2022-11-05T03:35:00.181Z,99.99
2022-11-05T03:36:00.175Z,99.99
2022-11-05T03:37:00.178Z,99.99
2022-11-05T03:38:00.175Z,99.99
2022-11-05T03:39:00.155Z,99.99
2022-11-05T03:40:00.191Z,99.99
2022-11-05T03:41:00.164Z,99.99
2022-11-05T03:42:00.171Z,99.99
2022-11-05T03:43:00.151Z,99.99
2022-11-05T03:44:00.155Z,99.99
2022-11-05T03:45:00.165Z,99.99
2022-11-05T03:46:00.153Z,99.99
2022-11-05T03:47:00.158Z,99.99
2022-11-05T03:48:00.160Z,99.99
2022-11-05T03:49:00.268Z,99.99
2022-11-05T03:50:00.186Z,99.99
2022-11-05T03:51:00.147Z,99.99
2022-11-05T03:52:00.167Z,99.99
2022-11-05T03:53:00.164Z,99.99
2022-11-05T03:54:00.153Z,99.99
2022-11-05T03:55:00.138Z,99.99
2022-11-05T03:56:00.131Z,99.99
2022-11-05T03:57:00.141Z,99.99
2022-11-05T03:58:00.153Z,99.99
2022-11-05T03:59:00.135Z,99.99
2022-11-05T04:00:00.125Z,99.99
2022-11-05T04:01:00.129Z,99.99
2022-11-05T04:02:00.225Z,99.99
2022-11-05T04:03:00.247Z,99.99
2022-11-05T04:04:00.129Z,99.99
2022-11-05T04:05:00.119Z,99.99
2022-11-05T04:06:00.121Z,99.99
2022-11-05T04:07:00.129Z,99.99
2022-11-05T04:08:00.133Z,99.99
2022-11-05T04:09:00.112Z,99.99
2022-11-05T04:10:00.136Z,99.99
2022-11-05T04:11:00.143Z,99.99
2022-11-05T04:12:00.108Z,99.99
2022-11-05T04:13:00.114Z,99.99
2022-11-05T04:14:00.127Z,99.99
2022-11-05T04:15:00.130Z,99.99
2022-11-05T04:16:00.121Z,99.99
2022-11-05T04:17:00.128Z,99.99
2022-11-05T04:18:00.109Z,99.99
2022-11-05T04:19:00.115Z,99.99
2022-11-05T04:20:00.128Z,99.99
2022-11-05T04:21:00.094Z,99.99
2022-11-05T04:22:00.112Z,99.99
2022-11-05T04:23:00.102Z,99.99
2022-11-05T04:24:00.118Z,99.99
2022-11-05T04:25:00.123Z,99.99
2022-11-05T04:26:00.091Z,99.99
2022-11-05T04:27:00.091Z,99.99
2022-11-05T04:28:00.093Z,99.99
2022-11-05T04:29:03.859Z,99.99
2022-11-05T04:30:00.106Z,99.99
2022-11-05T04:31:00.099Z,99.99
2022-11-05T04:32:00.092Z,99.99
2022-11-05T04:33:00.094Z,99.99
2022-11-05T04:34:00.083Z,99.99
2022-11-05T04:35:00.175Z,99.99
2022-11-05T04:36:00.087Z,99.99
2022-11-05T04:37:00.088Z,99.99
2022-11-05T04:38:00.096Z,99.99
2022-11-05T04:39:00.084Z,99.99
2022-11-05T04:40:00.096Z,99.99
2022-11-05T04:41:00.089Z,99.99
2022-11-05T04:42:00.067Z,99.99
2022-11-05T04:43:00.080Z,99.99
2022-11-05T04:44:00.068Z,99.99
2022-11-05T04:45:00.078Z,99.99
2022-11-05T04:46:00.082Z,99.99
2022-11-05T04:47:00.073Z,99.99
2022-11-05T04:48:00.054Z,99.99
2022-11-05T04:49:00.078Z,99.99
2022-11-05T04:50:00.053Z,99.99
2022-11-05T04:51:03.270Z,99.99
2022-11-05T04:52:00.075Z,99.99
2022-11-05T04:53:00.050Z,99.99
2022-11-05T04:54:00.043Z,99.99
2022-11-05T04:55:00.061Z,99.99
2022-11-05T04:56:00.051Z,99.99
2022-11-05T04:57:00.061Z,99.99
2022-11-05T04:58:00.046Z,99.99
2022-11-05T04:59:00.049Z,99.99
2022-11-05T05:00:00.043Z,99.99
2022-11-05T05:01:00.094Z,99.99
2022-11-05T05:02:00.053Z,99.99
2022-11-05T05:03:00.039Z,99.99
2022-11-05T05:04:00.031Z,99.99
2022-11-05T05:05:00.034Z,99.99
2022-11-05T05:06:03.802Z,99.99
2022-11-05T05:07:00.050Z,99.99
2022-11-05T05:08:00.051Z,99.99
2022-11-05T05:09:00.021Z,99.99
2022-11-05T05:10:00.031Z,99.99
2022-11-05T05:11:00.056Z,99.99
2022-11-05T05:12:00.035Z,99.99
2022-11-05T05:13:00.027Z,99.99
2022-11-05T05:14:00.018Z,99.99
2022-11-05T05:15:00.020Z,99.99
2022-11-05T05:16:00.025Z,99.99
2022-11-05T05:17:00.024Z,99.99
2022-11-05T05:18:00.022Z,99.99
2022-11-05T05:19:00.013Z,99.99
2022-11-05T05:20:00.013Z,99.99
2022-11-05T05:21:00.003Z,99.99
2022-11-05T05:22:00.031Z,99.99
2022-11-05T05:23:00.000Z,99.99
2022-11-05T05:24:00.001Z,99.99
2022-11-05T05:24:59.998Z,99.99
2022-11-05T05:26:00.007Z,99.99
2022-11-05T05:27:00.001Z,99.99
2022-11-05T05:28:00.010Z,99.99
2022-11-05T05:29:00.005Z,99.99
2022-11-05T05:30:00.008Z,99.99
2022-11-05T05:30:59.986Z,99.99
2022-11-05T05:31:59.987Z,99.99
2022-11-05T05:32:59.981Z,99.99
2022-11-05T05:33:59.994Z,99.99
2022-11-05T05:35:00.006Z,99.99
2022-11-05T05:35:59.979Z,99.99
2022-11-05T05:36:59.977Z,99.99
2022-11-05T05:37:59.973Z,99.99
2022-11-05T05:38:59.990Z,99.99
2022-11-05T05:40:00.009Z,99.99
2022-11-05T05:40:59.978Z,99.99
2022-11-05T05:41:59.979Z,99.99
2022-11-05T05:42:59.966Z,99.99
2022-11-05T05:43:59.979Z,99.99
2022-11-05T05:44:59.975Z,99.99
2022-11-05T05:45:59.980Z,99.99
2022-11-05T05:47:00.018Z,99.99
2022-11-05T05:47:59.957Z,99.99
2022-11-05T05:48:59.978Z,99.99
2022-11-05T05:49:59.966Z,99.99
2022-11-05T05:50:59.980Z,99.99
2022-11-05T05:51:59.961Z,99.99
2022-11-05T05:52:59.973Z,99.99
2022-11-05T05:53:59.948Z,99.99
2022-11-05T05:54:59.956Z,99.99
2022-11-05T05:55:59.946Z,99.99
2022-11-05T05:56:59.942Z,99.99
2022-11-05T05:57:59.960Z,99.99
2022-11-05T05:58:59.941Z,99.99
2022-11-05T05:59:59.940Z,99.99
2022-11-05T06:00:59.960Z,99.99
2022-11-05T06:02:00.045Z,99.99
2022-11-05T06:03:00.027Z,99.99
2022-11-05T06:03:59.944Z,99.99
2022-11-05T06:04:59.939Z,99.99
2022-11-05T06:05:59.962Z,99.99
2022-11-05T06:06:59.937Z,99.99
2022-11-05T06:07:59.954Z,99.99
2022-11-05T06:08:59.935Z,99.99
2022-11-05T06:09:59.936Z,99.99
2022-11-05T06:10:59.985Z,99.99
2022-11-05T06:11:59.926Z,99.99
2022-11-05T06:12:59.931Z,99.99
2022-11-05T06:13:59.927Z,99.99
2022-11-05T06:14:59.939Z,99.99
2022-11-05T06:15:59.931Z,99.99
2022-11-05T06:16:59.907Z,99.99
2022-11-05T06:17:59.919Z,99.99
2022-11-05T06:18:59.923Z,99.99
2022-11-05T06:19:59.904Z,99.99
2022-11-05T06:20:59.913Z,99.99
2022-11-05T06:21:59.899Z,99.99
2022-11-05T06:22:59.906Z,99.99
2022-11-05T06:23:59.923Z,99.99
2022-11-05T06:24:59.896Z,99.99
2022-11-05T06:25:59.895Z,99.99
2022-11-05T06:26:59.905Z,99.99
2022-11-05T06:27:59.901Z,99.99
2022-11-05T06:28:59.915Z,99.99
2022-11-05T06:29:59.887Z,99.99
2022-11-05T06:30:59.898Z,99.99
2022-11-05T06:31:59.913Z,99.99
2022-11-05T06:32:59.898Z,99.99
2022-11-05T06:33:59.888Z,99.99
2022-11-05T06:34:59.894Z,99.99
2022-11-05T06:35:59.883Z,99.99
2022-11-05T06:36:59.916Z,99.99
2022-11-05T06:37:59.884Z,99.99
2022-11-05T06:38:59.888Z,99.99
2022-11-05T06:39:59.926Z,99.99
2022-11-05T06:40:59.874Z,99.99
2022-11-05T06:42:59.865Z,99.99
2022-11-05T06:43:59.904Z,99.99
2022-11-05T06:44:59.869Z,99.99
2022-11-05T06:45:59.870Z,99.99
2022-11-05T06:46:59.864Z,99.99
2022-11-05T06:47:59.860Z,99.99
2022-11-05T06:48:59.860Z,99.99
2022-11-05T06:49:59.877Z,99.99
2022-11-05T06:50:59.848Z,99.99
2022-11-05T06:51:59.863Z,99.99
2022-11-05T06:52:59.873Z,99.99
2022-11-05T06:53:59.853Z,99.99
2022-11-05T06:54:59.854Z,99.99
2022-11-05T06:55:59.848Z,99.99
2022-11-05T06:56:59.845Z,99.99
2022-11-05T06:57:59.842Z,99.99
2022-11-05T06:58:59.858Z,99.99
2022-11-05T07:00:03.292Z,99.99
2022-11-05T07:00:59.926Z,99.99
2022-11-05T07:01:59.897Z,99.99
2022-11-05T07:02:59.862Z,99.99
2022-11-05T07:03:59.824Z,99.99
2022-11-05T07:04:59.826Z,99.99
2022-11-05T07:05:59.831Z,99.99
2022-11-05T07:06:59.860Z,99.99
2022-11-05T07:07:59.824Z,99.99
2022-11-05T07:08:59.829Z,99.99
2022-11-05T07:09:59.827Z,99.99
2022-11-05T07:10:59.830Z,99.99
2022-11-05T07:11:59.815Z,99.99
2022-11-05T07:13:03.729Z,99.99
2022-11-05T07:13:59.821Z,99.99
2022-11-05T07:14:59.827Z,99.99
2022-11-05T07:15:59.817Z,99.99
2022-11-05T07:16:59.811Z,99.99
2022-11-05T07:17:59.805Z,99.99
2022-11-05T07:18:59.817Z,99.99
2022-11-05T07:19:59.808Z,99.99
2022-11-05T07:20:59.825Z,99.99
2022-11-05T07:21:59.795Z,99.99
2022-11-05T07:22:59.807Z,99.99
2022-11-05T07:23:59.801Z,99.99
2022-11-05T07:24:59.808Z,99.99
2022-11-05T07:25:59.799Z,99.99
2022-11-05T07:26:59.799Z,99.99
2022-11-05T07:27:59.807Z,99.99
2022-11-05T07:28:59.802Z,99.99
2022-11-05T07:29:59.787Z,99.99
2022-11-05T07:30:59.787Z,99.99
2022-11-05T07:31:59.777Z,99.99
2022-11-05T07:32:59.791Z,99.99
2022-11-05T07:33:59.771Z,99.99
2022-11-05T07:34:59.790Z,99.99
2022-11-05T07:35:59.788Z,99.99
2022-11-05T07:36:59.779Z,99.99
2022-11-05T07:37:59.785Z,99.99
2022-11-05T07:39:00.650Z,99.99
2022-11-05T07:39:59.774Z,99.99
2022-11-05T07:40:59.773Z,99.99
2022-11-05T07:41:59.769Z,99.99
2022-11-05T07:42:59.772Z,99.99
2022-11-05T07:43:59.766Z,99.99
2022-11-05T07:44:59.769Z,99.99
2022-11-05T07:45:59.762Z,99.99
2022-11-05T07:46:59.768Z,99.99
2022-11-05T07:47:59.757Z,99.99
2022-11-05T07:48:59.780Z,99.99
2022-11-05T07:49:59.786Z,99.99
2022-11-05T07:50:59.746Z,99.99
2022-11-05T07:51:59.744Z,99.99
2022-11-05T07:52:59.746Z,99.99
2022-11-05T07:53:59.753Z,99.99
2022-11-05T07:54:59.755Z,99.99
2022-11-05T07:55:59.736Z,99.99
2022-11-05T07:56:59.758Z,99.99
2022-11-05T07:57:59.739Z,99.99
2022-11-05T07:58:59.740Z,99.99
2022-11-05T07:59:59.755Z,99.99
2022-11-05T08:00:59.964Z,99.99
2022-11-05T08:01:59.964Z,99.99
2022-11-05T08:03:06.771Z,99.99
2022-11-05T08:03:59.730Z,99.99
2022-11-05T08:04:59.724Z,99.99
2022-11-05T08:05:59.744Z,99.99
2022-11-05T08:06:59.745Z,99.99
2022-11-05T08:07:59.726Z,99.99
2022-11-05T08:08:59.733Z,99.99
2022-11-05T08:09:59.730Z,99.99
2022-11-05T08:10:59.729Z,99.99
2022-11-05T08:12:02.892Z,99.99
2022-11-05T08:12:59.719Z,99.99
2022-11-05T08:13:59.725Z,99.99
2022-11-05T08:14:59.713Z,99.99
2022-11-05T08:15:59.742Z,99.99
2022-11-05T08:16:59.721Z,99.99
2022-11-05T08:17:59.718Z,99.99
2022-11-05T08:18:59.710Z,99.99
2022-11-05T08:19:59.721Z,99.99
2022-11-05T08:20:59.718Z,99.99
2022-11-05T08:21:59.730Z,99.99
2022-11-05T08:22:59.721Z,99.99
2022-11-05T08:23:59.717Z,99.99
2022-11-05T08:25:05.586Z,99.99
2022-11-05T08:25:59.713Z,99.99
2022-11-05T08:26:59.728Z,99.99
2022-11-05T08:27:59.701Z,99.99
2022-11-05T08:28:59.708Z,99.99
2022-11-05T08:29:59.721Z,99.99
2022-11-05T08:30:59.695Z,99.99
2022-11-05T08:31:59.736Z,99.99
2022-11-05T08:32:59.694Z,99.99
2022-11-05T08:34:02.468Z,99.99
2022-11-05T08:34:59.693Z,99.99
2022-11-05T08:35:59.692Z,99.99
2022-11-05T08:36:59.703Z,99.99
2022-11-05T08:37:59.697Z,99.99
2022-11-05T08:38:59.721Z,99.99
2022-11-05T08:39:59.716Z,99.99
2022-11-05T08:40:59.688Z,99.99
2022-11-05T08:41:59.704Z,99.99
2022-11-05T08:42:59.685Z,99.99
2022-11-05T08:43:59.695Z,99.99
2022-11-05T08:44:59.709Z,99.99
2022-11-05T08:45:59.690Z,99.99
2022-11-05T08:46:59.693Z,99.99
2022-11-05T08:47:59.694Z,99.99
2022-11-05T08:48:59.680Z,99.99
2022-11-05T08:49:59.695Z,99.99
2022-11-05T08:50:59.793Z,99.99
2022-11-05T08:51:59.690Z,99.99
2022-11-05T08:52:59.718Z,99.99
2022-11-05T08:53:59.677Z,99.99
2022-11-05T08:54:59.689Z,99.99
2022-11-05T08:55:59.724Z,99.99
2022-11-05T08:56:59.671Z,99.99
2022-11-05T08:57:59.698Z,99.99
2022-11-05T08:58:59.688Z,99.99
2022-11-05T08:59:59.681Z,99.99
2022-11-05T09:01:04.799Z,99.99
2022-11-05T09:01:59.827Z,99.99
2022-11-05T09:02:59.697Z,99.99
2022-11-05T09:03:59.671Z,99.99
2022-11-05T09:04:59.675Z,99.99
2022-11-05T09:05:59.672Z,99.99
2022-11-05T09:06:59.684Z,99.99
2022-11-05T09:08:01.557Z,99.99
2022-11-05T09:08:59.675Z,99.99
2022-11-05T09:09:59.684Z,99.99
2022-11-05T09:10:59.685Z,99.99
2022-11-05T09:12:12.306Z,99.99
2022-11-05T09:12:59.697Z,99.99
2022-11-05T09:13:59.665Z,99.99
2022-11-05T09:14:59.687Z,99.99
2022-11-05T09:15:59.673Z,99.99
2022-11-05T09:16:59.672Z,99.99
2022-11-05T09:17:59.679Z,99.99
2022-11-05T09:18:59.664Z,99.99
2022-11-05T09:19:59.668Z,99.99
2022-11-05T09:20:59.679Z,99.99
2022-11-05T09:21:59.771Z,99.99
2022-11-05T09:22:59.670Z,99.99
2022-11-05T09:23:59.670Z,99.99
2022-11-05T09:24:59.674Z,99.99
2022-11-05T09:25:59.668Z,99.99
2022-11-05T09:26:59.658Z,99.99
2022-11-05T09:27:59.667Z,99.99
2022-11-05T09:28:59.693Z,99.99
2022-11-05T09:29:59.689Z,99.99
2022-11-05T09:30:59.668Z,99.99
2022-11-05T09:31:59.654Z,99.99
2022-11-05T09:32:59.656Z,99.99
2022-11-05T09:33:59.654Z,99.99
2022-11-05T09:34:59.672Z,99.99
2022-11-05T09:35:59.653Z,99.99
2022-11-05T09:36:59.663Z,99.99
2022-11-05T09:38:01.108Z,99.99
2022-11-05T09:38:59.681Z,99.99
2022-11-05T09:39:59.651Z,99.99
2022-11-05T09:40:59.654Z,99.99
2022-11-05T09:41:59.654Z,99.99
2022-11-05T09:42:59.674Z,99.99
2022-11-05T09:43:59.665Z,99.80
2022-11-05T09:44:59.676Z,99.57
2022-11-05T09:45:59.673Z,99.66
2022-11-05T09:46:59.657Z,99.28
2022-11-05T09:47:59.661Z,99.71
2022-11-05T09:48:59.656Z,99.33
2022-11-05T09:49:59.656Z,98.28
2022-11-05T09:50:59.670Z,98.04
2022-11-05T09:51:59.682Z,98.23
2022-11-05T09:52:59.668Z,98.80
2022-11-05T09:53:59.669Z,98.71
2022-11-05T09:54:59.692Z,98.71
2022-11-05T09:55:59.682Z,98.61
2022-11-05T09:56:59.665Z,99.28
2022-11-05T09:57:59.660Z,98.52
2022-11-05T09:58:59.670Z,98.33
2022-11-05T09:59:59.668Z,97.66
2022-11-05T10:00:59.760Z,97.90
2022-11-05T10:01:59.756Z,97.61
2022-11-05T10:02:59.680Z,96.37
2022-11-05T10:03:59.679Z,95.61
2022-11-05T10:05:02.501Z,95.51
2022-11-05T10:05:59.672Z,95.03
2022-11-05T10:06:59.665Z,95.32
2022-11-05T10:07:59.677Z,94.55
2022-11-05T10:08:59.690Z,94.36
2022-11-05T10:09:59.668Z,93.98
2022-11-05T10:10:59.677Z,93.88
2022-11-05T10:11:59.665Z,94.12
2022-11-05T10:12:59.685Z,93.30
2022-11-05T10:13:59.699Z,92.73
2022-11-05T10:14:59.676Z,92.68
2022-11-05T10:15:59.688Z,91.53
2022-11-05T10:16:59.676Z,91.15
2022-11-05T10:17:59.688Z,90.96
2022-11-05T10:18:59.696Z,90.58
2022-11-05T10:19:59.682Z,89.72
2022-11-05T10:20:59.687Z,90.23
2022-11-05T10:22:06.505Z,90.33
2022-11-05T10:22:59.700Z,89.66
2022-11-05T10:23:59.723Z,88.90
2022-11-05T10:24:59.713Z,88.80
2022-11-05T10:25:59.715Z,89.04
2022-11-05T10:26:59.724Z,87.21
2022-11-05T10:27:59.711Z,86.64
2022-11-05T10:28:59.728Z,86.69
2022-11-05T10:29:59.724Z,85.83
2022-11-05T10:30:59.724Z,86.21
2022-11-05T10:31:59.744Z,86.36
2022-11-05T10:32:59.717Z,87.03
2022-11-05T10:33:59.739Z,88.85
2022-11-05T10:34:59.759Z,89.62
2022-11-05T10:35:59.735Z,89.81
2022-11-05T10:36:59.724Z,89.14
2022-11-05T10:37:59.727Z,88.95
2022-11-05T10:38:59.732Z,88.85
2022-11-05T10:39:59.738Z,90.00
2022-11-05T10:40:59.755Z,90.96
2022-11-05T10:41:59.749Z,90.29
2022-11-05T10:42:59.750Z,89.62
2022-11-05T10:43:59.736Z,89.81
2022-11-05T10:44:59.766Z,89.62
2022-11-05T10:45:59.757Z,89.48
2022-11-05T10:46:59.777Z,89.58
2022-11-05T10:47:59.756Z,90.44
2022-11-05T10:48:59.768Z,90.24
2022-11-05T10:49:59.770Z,89.76
2022-11-05T10:50:59.762Z,89.81
2022-11-05T10:51:59.760Z,89.86
2022-11-05T10:52:59.751Z,90.34
2022-11-05T10:54:02.072Z,90.82
2022-11-05T10:54:59.763Z,89.58
2022-11-05T10:55:59.774Z,89.48
2022-11-05T10:56:59.836Z,89.58
2022-11-05T10:57:59.755Z,88.37
2022-11-05T10:58:59.764Z,87.41
2022-11-05T10:59:59.827Z,85.88
2022-11-05T11:00:59.812Z,85.98
2022-11-05T11:02:00.179Z,86.12
2022-11-05T11:02:59.773Z,85.54
2022-11-05T11:03:59.777Z,85.64
2022-11-05T11:04:59.781Z,85.21
2022-11-05T11:05:59.769Z,83.48
2022-11-05T11:06:59.828Z,83.52
2022-11-05T11:07:59.790Z,82.94
2022-11-05T11:08:59.784Z,82.46
2022-11-05T11:09:59.775Z,82.46
2022-11-05T11:10:59.772Z,82.65
2022-11-05T11:11:59.777Z,81.89
2022-11-05T11:12:59.785Z,82.27
2022-11-05T11:13:59.810Z,81.60
2022-11-05T11:14:59.838Z,81.60
2022-11-05T11:15:59.789Z,81.74
2022-11-05T11:16:59.853Z,81.64
2022-11-05T11:17:59.811Z,81.35
2022-11-05T11:18:59.804Z,79.91
2022-11-05T11:20:01.803Z,79.91
2022-11-05T11:20:59.822Z,79.82
2022-11-05T11:21:59.862Z,79.63
2022-11-05T11:22:59.800Z,79.34
2022-11-05T11:24:00.349Z,78.32
2022-11-05T11:24:59.826Z,76.98
2022-11-05T11:25:59.838Z,77.36
2022-11-05T11:26:59.807Z,78.03
2022-11-05T11:27:59.831Z,78.42
2022-11-05T11:28:59.824Z,78.32
2022-11-05T11:29:59.932Z,78.28
2022-11-05T11:30:59.846Z,78.96
2022-11-05T11:31:59.865Z,78.86
2022-11-05T11:32:59.823Z,79.24
2022-11-05T11:33:59.827Z,79.91
2022-11-05T11:34:59.829Z,80.01
2022-11-05T11:35:59.890Z,79.19
2022-11-05T11:36:59.914Z,77.80
2022-11-05T11:37:59.849Z,77.80
2022-11-05T11:38:59.850Z,77.04
2022-11-05T11:40:02.330Z,78.00
2022-11-05T11:40:59.873Z,77.61
2022-11-05T11:42:01.832Z,77.61
2022-11-05T11:42:59.851Z,78.09
2022-11-05T11:43:59.851Z,78.19
2022-11-05T11:44:59.877Z,78.28
2022-11-05T11:46:05.404Z,79.14
2022-11-05T11:46:59.860Z,78.80
2022-11-05T11:48:00.826Z,78.42
2022-11-05T11:48:59.893Z,77.65
2022-11-05T11:49:59.892Z,77.17
2022-11-05T11:50:59.867Z,77.56
2022-11-05T11:51:59.864Z,78.23
2022-11-05T11:52:59.864Z,76.98
2022-11-05T11:53:59.921Z,77.61
2022-11-05T11:55:01.842Z,78.82
2022-11-05T11:56:00.883Z,79.21
2022-11-05T11:56:59.858Z,80.32
2022-11-05T11:57:59.984Z,80.56
2022-11-05T11:58:59.911Z,81.46
2022-11-05T12:00:08.780Z,81.43
2022-11-05T12:00:59.866Z,82.00
2022-11-05T12:02:00.076Z,81.52
2022-11-05T12:03:02.140Z,81.10
2022-11-05T12:03:59.899Z,81.63
2022-11-05T12:04:59.895Z,82.97
2022-11-05T12:06:01.333Z,82.78
2022-11-05T12:07:04.307Z,83.06
2022-11-05T12:08:02.314Z,82.24
2022-11-05T12:09:06.388Z,83.01
2022-11-05T12:10:03.385Z,82.82
2022-11-05T12:11:26.354Z,82.76
2022-11-05T12:11:59.933Z,82.92
2022-11-05T12:12:59.912Z,83.39
2022-11-05T12:14:02.849Z,82.92
2022-11-05T12:14:59.903Z,83.39
2022-11-05T12:15:59.901Z,83.59
2022-11-05T12:16:59.884Z,82.82
2022-11-05T12:17:59.882Z,83.01
2022-11-05T12:18:59.924Z,83.11
2022-11-05T12:19:59.903Z,83.01
2022-11-05T12:20:59.902Z,83.01
2022-11-05T12:21:59.995Z,83.16
2022-11-05T12:22:59.896Z,83.45
2022-11-05T12:23:59.896Z,85.17
2022-11-05T12:24:59.892Z,84.69
2022-11-05T12:25:59.989Z,84.41
2022-11-05T12:26:59.915Z,84.59
2022-11-05T12:27:59.887Z,84.22
2022-11-05T12:29:18.001Z,83.83
2022-11-05T12:29:59.901Z,84.02
2022-11-05T12:30:59.901Z,84.22
2022-11-05T12:31:59.889Z,83.93
2022-11-05T12:32:59.965Z,84.69
2022-11-05T12:33:59.904Z,83.83
2022-11-05T12:34:59.896Z,84.22
2022-11-05T12:35:59.902Z,84.02
2022-11-05T12:36:59.898Z,84.59
2022-11-05T12:37:59.903Z,84.88
2022-11-05T12:38:59.898Z,84.69
2022-11-05T12:39:59.890Z,85.46
2022-11-05T12:40:59.890Z,85.46
2022-11-05T12:41:59.892Z,86.04
2022-11-05T12:42:59.908Z,85.27
2022-11-05T12:43:59.912Z,85.46
2022-11-05T12:44:59.889Z,85.36
2022-11-05T12:45:59.891Z,84.94
2022-11-05T12:46:59.889Z,84.94
2022-11-05T12:47:59.916Z,84.84
2022-11-05T12:48:59.913Z,85.13
2022-11-05T12:49:59.904Z,85.61
2022-11-05T12:50:59.912Z,85.71
2022-11-05T12:51:59.895Z,85.71
2022-11-05T12:52:59.905Z,85.61
2022-11-05T12:53:59.896Z,85.51
2022-11-05T12:54:59.910Z,85.61